sensor_id;sensor_type;location;lat;lon;timestamp;pressure;altitude;pressure_sealevel;temperature;humidity
65276;BME280;51875;49.994;14.052;2023-06-10T00:00:05;98078.53;;;15.70;100.00
65276;BME280;51875;49.994;14.052;2023-06-10T00:01:21;98076.16;;;15.65;100.00
65276;BME280;51875;49.994;14.052;2023-06-10T00:02:38;98071.31;;;15.58;100.00
65276;BME280;51875;49.994;14.052;2023-06-10T00:03:54;98070.94;;;15.48;100.00
65276;BME280;51875;49.994;14.052;2023-06-10T00:05:10;98073.66;;;15.62;100.00
65276;BME280;51875;49.994;14.052;2023-06-10T00:06:26;98074.56;;;15.29;100.00
65276;BME280;51875;49.994;14.052;2023-06-10T00:07:42;98067.25;;;15.34;100.00
65276;BME280;51875;49.994;14.052;2023-06-10T00:08:57;98071.97;;;15.11;100.00
65276;BME280;51875;49.994;14.052;2023-06-10T00:10:13;98074.09;;;15.21;100.00
65276;BME280;51875;49.994;14.052;2023-06-10T00:11:28;98071.44;;;15.38;100.00
65276;BME280;51875;49.994;14.052;2023-06-10T00:12:44;98072.75;;;15.14;100.00
65276;BME280;51875;49.994;14.052;2023-06-10T00:14:00;98075.31;;;15.31;100.00
65276;BME280;51875;49.994;14.052;2023-06-10T00:15:15;98072.53;;;15.34;100.00
65276;BME280;51875;49.994;14.052;2023-06-10T00:16:31;98070.00;;;15.49;100.00
65276;BME280;51875;49.994;14.052;2023-06-10T00:17:46;98076.81;;;15.69;100.00
65276;BME280;51875;49.994;14.052;2023-06-10T00:19:03;98070.00;;;15.65;100.00
65276;BME280;51875;49.994;14.052;2023-06-10T00:20:19;98066.28;;;15.53;100.00
65276;BME280;51875;49.994;14.052;2023-06-10T00:21:39;98067.69;;;15.43;100.00
65276;BME280;51875;49.994;14.052;2023-06-10T00:22:55;98068.47;;;15.45;100.00
65276;BME280;51875;49.994;14.052;2023-06-10T00:24:12;98070.09;;;15.47;100.00
65276;BME280;51875;49.994;14.052;2023-06-10T00:25:27;98066.38;;;15.18;100.00
65276;BME280;51875;49.994;14.052;2023-06-10T00:26:43;98066.53;;;15.15;100.00
65276;BME280;51875;49.994;14.052;2023-06-10T00:27:59;98067.81;;;15.23;100.00
65276;BME280;51875;49.994;14.052;2023-06-10T00:29:15;98067.44;;;15.47;100.00
65276;BME280;51875;49.994;14.052;2023-06-10T00:30:31;98073.25;;;15.54;100.00
65276;BME280;51875;49.994;14.052;2023-06-10T00:31:46;98073.91;;;15.42;100.00
65276;BME280;51875;49.994;14.052;2023-06-10T00:33:02;98067.00;;;15.39;100.00
65276;BME280;51875;49.994;14.052;2023-06-10T00:34:17;98067.16;;;15.36;100.00
65276;BME280;51875;49.994;14.052;2023-06-10T00:35:33;98069.88;;;15.34;100.00
65276;BME280;51875;49.994;14.052;2023-06-10T00:36:49;98073.03;;;15.25;100.00
65276;BME280;51875;49.994;14.052;2023-06-10T00:38:04;98073.94;;;14.90;100.00
65276;BME280;51875;49.994;14.052;2023-06-10T00:39:19;98077.34;;;14.92;100.00
65276;BME280;51875;49.994;14.052;2023-06-10T00:40:41;98078.44;;;14.88;100.00
65276;BME280;51875;49.994;14.052;2023-06-10T00:41:57;98071.53;;;14.68;100.00
65276;BME280;51875;49.994;14.052;2023-06-10T00:43:12;98084.44;;;14.55;100.00
65276;BME280;51875;49.994;14.052;2023-06-10T00:44:28;98074.47;;;14.79;100.00
65276;BME280;51875;49.994;14.052;2023-06-10T00:45:43;98075.41;;;14.78;100.00
65276;BME280;51875;49.994;14.052;2023-06-10T00:46:59;98080.13;;;15.07;100.00
65276;BME280;51875;49.994;14.052;2023-06-10T00:48:14;98084.94;;;14.99;100.00
65276;BME280;51875;49.994;14.052;2023-06-10T00:49:30;98079.22;;;14.90;100.00
65276;BME280;51875;49.994;14.052;2023-06-10T00:50:46;98077.41;;;14.91;100.00
65276;BME280;51875;49.994;14.052;2023-06-10T00:52:03;98080.56;;;14.81;100.00
65276;BME280;51875;49.994;14.052;2023-06-10T00:53:21;98077.91;;;14.81;100.00
65276;BME280;51875;49.994;14.052;2023-06-10T00:54:40;98080.28;;;14.86;100.00
65276;BME280;51875;49.994;14.052;2023-06-10T00:55:55;98084.09;;;14.98;100.00
65276;BME280;51875;49.994;14.052;2023-06-10T00:57:12;98089.19;;;15.01;100.00
65276;BME280;51875;49.994;14.052;2023-06-10T00:58:29;98084.84;;;15.00;100.00
65276;BME280;51875;49.994;14.052;2023-06-10T00:59:48;98084.38;;;15.09;100.00
65276;BME280;51875;49.994;14.052;2023-06-10T01:01:03;98081.63;;;14.95;100.00
65276;BME280;51875;49.994;14.052;2023-06-10T01:02:22;98085.63;;;15.02;100.00
65276;BME280;51875;49.994;14.052;2023-06-10T01:03:38;98083.31;;;14.96;100.00
65276;BME280;51875;49.994;14.052;2023-06-10T01:04:54;98082.19;;;15.18;100.00
65276;BME280;51875;49.994;14.052;2023-06-10T01:06:36;98077.06;;;15.15;100.00
65276;BME280;51875;49.994;14.052;2023-06-10T01:08:01;98088.72;;;14.93;100.00
65276;BME280;51875;49.994;14.052;2023-06-10T01:09:36;98088.44;;;14.99;100.00
65276;BME280;51875;49.994;14.052;2023-06-10T01:10:56;98090.44;;;14.94;100.00
65276;BME280;51875;49.994;14.052;2023-06-10T01:12:20;98087.03;;;14.92;100.00
65276;BME280;51875;49.994;14.052;2023-06-10T01:13:41;98086.59;;;14.83;100.00
65276;BME280;51875;49.994;14.052;2023-06-10T01:14:58;98092.78;;;15.00;100.00
65276;BME280;51875;49.994;14.052;2023-06-10T01:16:14;98092.91;;;15.15;100.00
65276;BME280;51875;49.994;14.052;2023-06-10T01:17:30;98094.59;;;15.16;100.00
65276;BME280;51875;49.994;14.052;2023-06-10T01:18:45;98096.13;;;15.20;100.00
65276;BME280;51875;49.994;14.052;2023-06-10T01:20:01;98097.63;;;15.08;100.00
65276;BME280;51875;49.994;14.052;2023-06-10T01:21:23;98106.47;;;15.07;100.00
65276;BME280;51875;49.994;14.052;2023-06-10T01:22:42;98099.94;;;15.14;100.00
65276;BME280;51875;49.994;14.052;2023-06-10T01:23:57;98100.81;;;15.15;100.00
65276;BME280;51875;49.994;14.052;2023-06-10T01:25:14;98096.81;;;14.90;100.00
65276;BME280;51875;49.994;14.052;2023-06-10T01:26:32;98107.34;;;14.90;100.00
65276;BME280;51875;49.994;14.052;2023-06-10T01:27:49;98105.72;;;15.05;100.00
65276;BME280;51875;49.994;14.052;2023-06-10T01:29:19;98103.50;;;15.13;100.00
65276;BME280;51875;49.994;14.052;2023-06-10T01:33:31;98100.81;;;15.15;100.00
65276;BME280;51875;49.994;14.052;2023-06-10T01:34:49;98105.75;;;15.21;100.00
65276;BME280;51875;49.994;14.052;2023-06-10T01:36:06;98106.16;;;15.13;100.00
65276;BME280;51875;49.994;14.052;2023-06-10T01:37:24;98100.81;;;15.15;100.00
65276;BME280;51875;49.994;14.052;2023-06-10T01:38:46;98111.28;;;15.16;100.00
65276;BME280;51875;49.994;14.052;2023-06-10T01:40:03;98103.53;;;14.95;100.00
65276;BME280;51875;49.994;14.052;2023-06-10T01:41:22;98101.13;;;14.91;100.00
65276;BME280;51875;49.994;14.052;2023-06-10T01:42:38;98104.53;;;14.93;100.00
65276;BME280;51875;49.994;14.052;2023-06-10T01:43:54;98112.94;;;14.83;100.00
65276;BME280;51875;49.994;14.052;2023-06-10T01:45:10;98106.75;;;14.85;100.00
65276;BME280;51875;49.994;14.052;2023-06-10T01:46:25;98110.16;;;14.87;100.00
65276;BME280;51875;49.994;14.052;2023-06-10T01:47:41;98105.34;;;14.95;100.00
65276;BME280;51875;49.994;14.052;2023-06-10T01:48:56;98109.41;;;15.01;100.00
65276;BME280;51875;49.994;14.052;2023-06-10T01:50:12;98116.19;;;14.89;100.00
65276;BME280;51875;49.994;14.052;2023-06-10T01:51:34;98112.09;;;14.46;100.00
65276;BME280;51875;49.994;14.052;2023-06-10T01:52:51;98113.03;;;14.45;100.00
65276;BME280;51875;49.994;14.052;2023-06-10T01:54:07;98112.31;;;14.78;100.00
65276;BME280;51875;49.994;14.052;2023-06-10T01:55:22;98110.84;;;14.90;100.00
65276;BME280;51875;49.994;14.052;2023-06-10T01:56:38;98111.94;;;15.04;100.00
65276;BME280;51875;49.994;14.052;2023-06-10T01:57:53;98106.25;;;14.94;100.00
65276;BME280;51875;49.994;14.052;2023-06-10T01:59:09;98110.13;;;15.04;100.00
65276;BME280;51875;49.994;14.052;2023-06-10T02:00:25;98111.28;;;14.99;100.00
65276;BME280;51875;49.994;14.052;2023-06-10T02:01:40;98121.38;;;14.90;100.00
65276;BME280;51875;49.994;14.052;2023-06-10T02:02:56;98111.25;;;14.82;100.00
65276;BME280;51875;49.994;14.052;2023-06-10T02:04:11;98115.88;;;14.77;100.00
65276;BME280;51875;49.994;14.052;2023-06-10T02:05:27;98114.00;;;14.79;100.00
65276;BME280;51875;49.994;14.052;2023-06-10T02:06:42;98115.47;;;14.85;100.00
65276;BME280;51875;49.994;14.052;2023-06-10T02:07:58;98125.97;;;14.87;100.00
65276;BME280;51875;49.994;14.052;2023-06-10T02:09:13;98125.56;;;14.77;100.00
65276;BME280;51875;49.994;14.052;2023-06-10T02:10:29;98118.97;;;14.68;100.00
65276;BME280;51875;49.994;14.052;2023-06-10T02:11:45;98117.91;;;14.72;100.00
65276;BME280;51875;49.994;14.052;2023-06-10T02:13:00;98119.44;;;14.76;100.00
65276;BME280;51875;49.994;14.052;2023-06-10T02:14:16;98118.97;;;14.86;100.00
65276;BME280;51875;49.994;14.052;2023-06-10T02:15:31;98111.06;;;15.03;100.00
65276;BME280;51875;49.994;14.052;2023-06-10T02:16:47;98109.97;;;15.07;100.00
65276;BME280;51875;49.994;14.052;2023-06-10T02:18:03;98118.81;;;14.89;100.00
65276;BME280;51875;49.994;14.052;2023-06-10T02:19:18;98116.94;;;15.08;100.00
65276;BME280;51875;49.994;14.052;2023-06-10T02:20:40;98115.09;;;15.10;100.00
65276;BME280;51875;49.994;14.052;2023-06-10T02:21:55;98112.47;;;15.10;100.00
65276;BME280;51875;49.994;14.052;2023-06-10T02:23:11;98111.44;;;15.13;100.00
65276;BME280;51875;49.994;14.052;2023-06-10T02:24:26;98113.53;;;15.24;100.00
65276;BME280;51875;49.994;14.052;2023-06-10T02:25:42;98110.78;;;15.25;100.00
65276;BME280;51875;49.994;14.052;2023-06-10T02:26:57;98117.22;;;15.37;100.00
65276;BME280;51875;49.994;14.052;2023-06-10T02:28:15;98116.94;;;15.42;100.00
65276;BME280;51875;49.994;14.052;2023-06-10T02:29:31;98117.13;;;15.39;100.00
65276;BME280;51875;49.994;14.052;2023-06-10T02:30:46;98114.19;;;15.28;100.00
65276;BME280;51875;49.994;14.052;2023-06-10T02:32:03;98108.19;;;15.08;100.00
65276;BME280;51875;49.994;14.052;2023-06-10T02:33:18;98118.81;;;15.06;100.00
65276;BME280;51875;49.994;14.052;2023-06-10T02:34:35;98112.06;;;15.18;100.00
65276;BME280;51875;49.994;14.052;2023-06-10T02:35:52;98119.47;;;15.28;100.00
65276;BME280;51875;49.994;14.052;2023-06-10T02:37:07;98110.63;;;15.29;100.00
65276;BME280;51875;49.994;14.052;2023-06-10T02:38:22;98114.72;;;15.34;100.00
65276;BME280;51875;49.994;14.052;2023-06-10T02:39:38;98112.84;;;15.36;100.00
65276;BME280;51875;49.994;14.052;2023-06-10T02:40:54;98110.91;;;15.40;100.00
65276;BME280;51875;49.994;14.052;2023-06-10T02:42:09;98118.22;;;15.35;100.00
65276;BME280;51875;49.994;14.052;2023-06-10T02:43:26;98116.09;;;15.08;100.00
65276;BME280;51875;49.994;14.052;2023-06-10T02:44:41;98112.06;;;15.18;100.00
65276;BME280;51875;49.994;14.052;2023-06-10T02:45:57;98117.88;;;15.07;100.00
65276;BME280;51875;49.994;14.052;2023-06-10T02:47:12;98117.03;;;15.07;100.00
65276;BME280;51875;49.994;14.052;2023-06-10T02:48:28;98120.50;;;15.07;100.00
65276;BME280;51875;49.994;14.052;2023-06-10T02:49:43;98115.75;;;15.14;100.00
65276;BME280;51875;49.994;14.052;2023-06-10T02:50:59;98119.44;;;15.11;100.00
65276;BME280;51875;49.994;14.052;2023-06-10T02:52:15;98119.56;;;15.08;100.00
65276;BME280;51875;49.994;14.052;2023-06-10T02:53:31;98120.66;;;15.04;100.00
65276;BME280;51875;49.994;14.052;2023-06-10T02:54:46;98122.84;;;15.14;100.00
65276;BME280;51875;49.994;14.052;2023-06-10T02:56:02;98120.38;;;15.10;100.00
65276;BME280;51875;49.994;14.052;2023-06-10T02:57:17;98126.72;;;14.89;100.00
65276;BME280;51875;49.994;14.052;2023-06-10T02:58:33;98130.78;;;14.96;100.00
65276;BME280;51875;49.994;14.052;2023-06-10T02:59:49;98129.19;;;14.92;100.00
65276;BME280;51875;49.994;14.052;2023-06-10T03:01:04;98130.50;;;15.01;100.00
65276;BME280;51875;49.994;14.052;2023-06-10T03:02:20;98132.38;;;14.81;100.00
65276;BME280;51875;49.994;14.052;2023-06-10T03:03:36;98130.16;;;14.73;100.00
65276;BME280;51875;49.994;14.052;2023-06-10T03:04:55;98131.84;;;14.74;100.00
65276;BME280;51875;49.994;14.052;2023-06-10T03:06:11;98136.59;;;15.03;100.00
65276;BME280;51875;49.994;14.052;2023-06-10T03:07:27;98136.81;;;14.98;100.00
65276;BME280;51875;49.994;14.052;2023-06-10T03:08:43;98135.94;;;14.97;100.00
65276;BME280;51875;49.994;14.052;2023-06-10T03:09:59;98136.72;;;15.17;100.00
65276;BME280;51875;49.994;14.052;2023-06-10T03:11:15;98135.25;;;14.94;100.00
65276;BME280;51875;49.994;14.052;2023-06-10T03:12:30;98128.75;;;14.83;100.00
65276;BME280;51875;49.994;14.052;2023-06-10T03:13:46;98138.97;;;14.90;100.00
65276;BME280;51875;49.994;14.052;2023-06-10T03:15:02;98147.22;;;14.83;100.00
65276;BME280;51875;49.994;14.052;2023-06-10T03:16:19;98151.34;;;14.70;100.00
65276;BME280;51875;49.994;14.052;2023-06-10T03:17:35;98137.19;;;14.73;100.00
65276;BME280;51875;49.994;14.052;2023-06-10T03:18:50;98145.34;;;14.86;100.00
65276;BME280;51875;49.994;14.052;2023-06-10T03:20:06;98145.19;;;14.89;100.00
65276;BME280;51875;49.994;14.052;2023-06-10T03:21:25;98146.38;;;14.64;100.00
65276;BME280;51875;49.994;14.052;2023-06-10T03:22:42;98141.63;;;14.35;100.00
65276;BME280;51875;49.994;14.052;2023-06-10T03:23:58;98154.81;;;14.53;100.00
65276;BME280;51875;49.994;14.052;2023-06-10T03:25:13;98142.44;;;14.36;100.00
65276;BME280;51875;49.994;14.052;2023-06-10T03:26:29;98144.22;;;14.54;100.00
65276;BME280;51875;49.994;14.052;2023-06-10T03:27:45;98151.34;;;14.70;100.00
65276;BME280;51875;49.994;14.052;2023-06-10T03:29:00;98149.53;;;14.53;100.00
65276;BME280;51875;49.994;14.052;2023-06-10T03:30:16;98144.81;;;14.42;100.00
65276;BME280;51875;49.994;14.052;2023-06-10T03:31:32;98149.47;;;14.54;100.00
65276;BME280;51875;49.994;14.052;2023-06-10T03:32:47;98148.06;;;14.65;100.00
65276;BME280;51875;49.994;14.052;2023-06-10T03:34:04;98151.56;;;14.48;100.00
65276;BME280;51875;49.994;14.052;2023-06-10T03:35:20;98149.97;;;14.44;100.00
65276;BME280;51875;49.994;14.052;2023-06-10T03:36:35;98148.81;;;14.49;100.00
65276;BME280;51875;49.994;14.052;2023-06-10T03:37:52;98148.88;;;14.30;100.00
65276;BME280;51875;49.994;14.052;2023-06-10T03:39:08;98147.31;;;14.26;100.00
65276;BME280;51875;49.994;14.052;2023-06-10T03:40:24;98150.94;;;14.23;100.00
65276;BME280;51875;49.994;14.052;2023-06-10T03:41:40;98154.66;;;14.56;100.00
65276;BME280;51875;49.994;14.052;2023-06-10T03:42:56;98152.56;;;14.63;100.00
65276;BME280;51875;49.994;14.052;2023-06-10T03:44:11;98154.63;;;14.75;100.00
65276;BME280;51875;49.994;14.052;2023-06-10T03:45:26;98148.72;;;14.70;100.00
65276;BME280;51875;49.994;14.052;2023-06-10T03:46:43;98149.31;;;14.58;100.00
65276;BME280;51875;49.994;14.052;2023-06-10T03:48:00;98149.44;;;14.74;100.00
65276;BME280;51875;49.994;14.052;2023-06-10T03:49:15;98153.53;;;14.79;100.00
65276;BME280;51875;49.994;14.052;2023-06-10T03:50:31;98154.97;;;14.67;100.00
65276;BME280;51875;49.994;14.052;2023-06-10T03:51:47;98143.38;;;14.72;100.00
65276;BME280;51875;49.994;14.052;2023-06-10T03:53:02;98146.97;;;14.51;100.00
65276;BME280;51875;49.994;14.052;2023-06-10T03:54:18;98150.97;;;14.60;100.00
65276;BME280;51875;49.994;14.052;2023-06-10T03:55:33;98149.44;;;14.74;100.00
65276;BME280;51875;49.994;14.052;2023-06-10T03:56:49;98152.69;;;14.79;100.00
65276;BME280;51875;49.994;14.052;2023-06-10T03:58:05;98158.97;;;14.76;100.00
65276;BME280;51875;49.994;14.052;2023-06-10T03:59:21;98150.34;;;14.73;100.00
65276;BME280;51875;49.994;14.052;2023-06-10T04:00:36;98152.59;;;14.80;100.00
65276;BME280;51875;49.994;14.052;2023-06-10T04:01:56;98148.53;;;14.75;100.00
65276;BME280;51875;49.994;14.052;2023-06-10T04:03:12;98153.63;;;14.78;100.00
65276;BME280;51875;49.994;14.052;2023-06-10T04:04:31;98155.91;;;14.66;100.00
65276;BME280;51875;49.994;14.052;2023-06-10T04:05:46;98157.63;;;14.67;100.00
65276;BME280;51875;49.994;14.052;2023-06-10T04:07:02;98153.84;;;14.73;100.00
65276;BME280;51875;49.994;14.052;2023-06-10T04:08:18;98159.28;;;14.88;100.00
65276;BME280;51875;49.994;14.052;2023-06-10T04:09:34;98168.38;;;14.63;100.00
65276;BME280;51875;49.994;14.052;2023-06-10T04:10:51;98167.81;;;14.56;100.00
65276;BME280;51875;49.994;14.052;2023-06-10T04:12:07;98169.31;;;14.62;100.00
65276;BME280;51875;49.994;14.052;2023-06-10T04:13:24;98170.59;;;14.72;100.00
65276;BME280;51875;49.994;14.052;2023-06-10T04:14:40;98164.00;;;14.81;100.00
65276;BME280;51875;49.994;14.052;2023-06-10T04:15:55;98168.09;;;14.69;100.00
65276;BME280;51875;49.994;14.052;2023-06-10T04:17:11;98166.88;;;14.76;100.00
65276;BME280;51875;49.994;14.052;2023-06-10T04:18:26;98165.66;;;14.83;100.00
65276;BME280;51875;49.994;14.052;2023-06-10T04:19:42;98166.66;;;14.81;100.00
65276;BME280;51875;49.994;14.052;2023-06-10T04:20:57;98167.25;;;14.86;100.00
65276;BME280;51875;49.994;14.052;2023-06-10T04:22:13;98173.75;;;14.61;100.00
65276;BME280;51875;49.994;14.052;2023-06-10T04:23:29;98174.41;;;14.65;100.00
65276;BME280;51875;49.994;14.052;2023-06-10T04:24:44;98176.00;;;14.69;100.00
65276;BME280;51875;49.994;14.052;2023-06-10T04:26:00;98172.69;;;14.83;100.00
65276;BME280;51875;49.994;14.052;2023-06-10T04:27:16;98173.25;;;14.90;100.00
65276;BME280;51875;49.994;14.052;2023-06-10T04:28:31;98172.25;;;14.92;100.00
65276;BME280;51875;49.994;14.052;2023-06-10T04:29:47;98176.03;;;14.87;100.00
65276;BME280;51875;49.994;14.052;2023-06-10T04:31:02;98175.59;;;14.96;100.00
65276;BME280;51875;49.994;14.052;2023-06-10T04:32:19;98175.50;;;14.80;100.00
65276;BME280;51875;49.994;14.052;2023-06-10T04:33:35;98176.06;;;14.67;100.00
65276;BME280;51875;49.994;14.052;2023-06-10T04:34:51;98179.13;;;14.77;100.00
65276;BME280;51875;49.994;14.052;2023-06-10T04:36:06;98180.00;;;14.95;100.00
65276;BME280;51875;49.994;14.052;2023-06-10T04:37:22;98173.72;;;14.98;100.00
65276;BME280;51875;49.994;14.052;2023-06-10T04:38:38;98177.56;;;15.08;100.00
65276;BME280;51875;49.994;14.052;2023-06-10T04:39:53;98173.78;;;14.96;100.00
65276;BME280;51875;49.994;14.052;2023-06-10T04:41:09;98169.53;;;15.11;100.00
65276;BME280;51875;49.994;14.052;2023-06-10T04:42:24;98171.41;;;15.09;100.00
65276;BME280;51875;49.994;14.052;2023-06-10T04:43:40;98173.66;;;15.17;100.00
65276;BME280;51875;49.994;14.052;2023-06-10T04:44:56;98182.06;;;15.06;100.00
65276;BME280;51875;49.994;14.052;2023-06-10T04:46:11;98171.41;;;15.09;100.00
65276;BME280;51875;49.994;14.052;2023-06-10T04:47:28;98172.16;;;14.94;100.00
65276;BME280;51875;49.994;14.052;2023-06-10T04:48:44;98174.19;;;15.24;100.00
65276;BME280;51875;49.994;14.052;2023-06-10T04:50:02;98172.16;;;15.11;100.00
65276;BME280;51875;49.994;14.052;2023-06-10T04:51:19;98171.63;;;15.22;100.00
65276;BME280;51875;49.994;14.052;2023-06-10T04:52:35;98172.38;;;15.24;100.00
65276;BME280;51875;49.994;14.052;2023-06-10T04:53:50;98170.88;;;15.36;100.00
65276;BME280;51875;49.994;14.052;2023-06-10T04:55:06;98182.44;;;15.51;100.00
65276;BME280;51875;49.994;14.052;2023-06-10T04:56:22;98181.56;;;15.17;100.00
65276;BME280;51875;49.994;14.052;2023-06-10T04:57:40;98183.94;;;15.04;100.00
65276;BME280;51875;49.994;14.052;2023-06-10T04:58:57;98182.53;;;14.79;100.00
65276;BME280;51875;49.994;14.052;2023-06-10T05:00:13;98180.69;;;14.99;100.00
65276;BME280;51875;49.994;14.052;2023-06-10T05:01:29;98189.22;;;15.39;100.00
65276;BME280;51875;49.994;14.052;2023-06-10T05:02:45;98185.25;;;15.48;100.00
65276;BME280;51875;49.994;14.052;2023-06-10T05:04:04;98180.44;;;15.39;100.00
65276;BME280;51875;49.994;14.052;2023-06-10T05:05:20;98189.19;;;15.57;100.00
65276;BME280;51875;49.994;14.052;2023-06-10T05:06:35;98189.94;;;15.59;100.00
65276;BME280;51875;49.994;14.052;2023-06-10T05:07:51;98190.81;;;15.42;100.00
65276;BME280;51875;49.994;14.052;2023-06-10T05:09:07;98184.19;;;15.17;100.00
65276;BME280;51875;49.994;14.052;2023-06-10T05:10:23;98189.69;;;15.13;100.00
65276;BME280;51875;49.994;14.052;2023-06-10T05:11:38;98193.47;;;15.24;100.00
65276;BME280;51875;49.994;14.052;2023-06-10T05:12:54;98192.31;;;15.30;100.00
65276;BME280;51875;49.994;14.052;2023-06-10T05:14:09;98197.72;;;15.45;100.00
65276;BME280;51875;49.994;14.052;2023-06-10T05:15:25;98194.63;;;15.36;100.00
65276;BME280;51875;49.994;14.052;2023-06-10T05:16:41;98201.31;;;15.44;100.00
65276;BME280;51875;49.994;14.052;2023-06-10T05:17:58;98198.59;;;15.10;100.00
65276;BME280;51875;49.994;14.052;2023-06-10T05:19:14;98206.34;;;14.95;100.00
65276;BME280;51875;49.994;14.052;2023-06-10T05:20:31;98201.63;;;15.20;100.00
65276;BME280;51875;49.994;14.052;2023-06-10T05:21:47;98199.22;;;15.33;100.00
65276;BME280;51875;49.994;14.052;2023-06-10T05:23:03;98196.34;;;15.37;100.00
65276;BME280;51875;49.994;14.052;2023-06-10T05:24:19;98197.97;;;15.40;100.00
65276;BME280;51875;49.994;14.052;2023-06-10T05:25:34;98198.47;;;15.64;100.00
65276;BME280;51875;49.994;14.052;2023-06-10T05:26:50;98200.72;;;15.54;100.00
65276;BME280;51875;49.994;14.052;2023-06-10T05:28:06;98197.91;;;15.24;100.00
65276;BME280;51875;49.994;14.052;2023-06-10T05:29:25;98195.75;;;15.15;100.00
65276;BME280;51875;49.994;14.052;2023-06-10T05:30:40;98202.94;;;15.11;100.00
65276;BME280;51875;49.994;14.052;2023-06-10T05:31:56;98201.38;;;15.24;100.00
65276;BME280;51875;49.994;14.052;2023-06-10T05:33:13;98197.03;;;15.59;100.00
65276;BME280;51875;49.994;14.052;2023-06-10T05:34:29;98203.25;;;15.58;100.00
65276;BME280;51875;49.994;14.052;2023-06-10T05:35:45;98201.31;;;15.44;100.00
65276;BME280;51875;49.994;14.052;2023-06-10T05:37:01;98200.94;;;15.34;100.00
65276;BME280;51875;49.994;14.052;2023-06-10T05:38:16;98198.09;;;15.54;100.00
65276;BME280;51875;49.994;14.052;2023-06-10T05:39:32;98196.50;;;15.52;100.00
65276;BME280;51875;49.994;14.052;2023-06-10T05:40:47;98195.22;;;15.59;100.00
65276;BME280;51875;49.994;14.052;2023-06-10T05:42:05;98198.44;;;15.82;100.00
65276;BME280;51875;49.994;14.052;2023-06-10T05:43:22;98202.00;;;15.81;100.00
65276;BME280;51875;49.994;14.052;2023-06-10T05:44:37;98202.16;;;15.95;100.00
65276;BME280;51875;49.994;14.052;2023-06-10T05:45:53;98204.72;;;16.13;100.00
65276;BME280;51875;49.994;14.052;2023-06-10T05:47:08;98210.16;;;16.26;100.00
65276;BME280;51875;49.994;14.052;2023-06-10T05:48:24;98206.34;;;16.16;100.00
65276;BME280;51875;49.994;14.052;2023-06-10T05:49:40;98207.09;;;16.02;100.00
65276;BME280;51875;49.994;14.052;2023-06-10T05:50:55;98205.22;;;16.04;100.00
65276;BME280;51875;49.994;14.052;2023-06-10T05:52:11;98203.28;;;16.23;100.00
65276;BME280;51875;49.994;14.052;2023-06-10T05:53:26;98208.03;;;16.33;100.00
65276;BME280;51875;49.994;14.052;2023-06-10T05:54:42;98205.59;;;16.46;100.00
65276;BME280;51875;49.994;14.052;2023-06-10T05:55:57;98203.78;;;16.46;100.00
65276;BME280;51875;49.994;14.052;2023-06-10T05:57:13;98207.53;;;16.42;100.00
65276;BME280;51875;49.994;14.052;2023-06-10T05:58:32;98203.78;;;16.46;100.00
65276;BME280;51875;49.994;14.052;2023-06-10T05:59:47;98202.59;;;16.52;100.00
65276;BME280;51875;49.994;14.052;2023-06-10T06:01:02;98213.84;;;16.56;100.00
65276;BME280;51875;49.994;14.052;2023-06-10T06:02:18;98211.59;;;16.80;100.00
65276;BME280;51875;49.994;14.052;2023-06-10T06:03:34;98209.19;;;16.91;100.00
65276;BME280;51875;49.994;14.052;2023-06-10T06:04:49;98204.34;;;17.00;100.00
65276;BME280;51875;49.994;14.052;2023-06-10T06:06:05;98207.00;;;16.84;100.00
65276;BME280;51875;49.994;14.052;2023-06-10T06:07:21;98201.00;;;16.96;100.00
65276;BME280;51875;49.994;14.052;2023-06-10T06:08:36;98197.41;;;17.13;100.00
65276;BME280;51875;49.994;14.052;2023-06-10T06:09:52;98196.69;;;17.26;100.00
65276;BME280;51875;49.994;14.052;2023-06-10T06:11:07;98197.69;;;17.23;100.00
65276;BME280;51875;49.994;14.052;2023-06-10T06:12:23;98199.69;;;17.34;100.00
65276;BME280;51875;49.994;14.052;2023-06-10T06:13:39;98195.13;;;17.21;100.00
65276;BME280;51875;49.994;14.052;2023-06-10T06:14:54;98197.25;;;17.45;100.00
65276;BME280;51875;49.994;14.052;2023-06-10T06:16:10;98205.50;;;17.55;100.00
65276;BME280;51875;49.994;14.052;2023-06-10T06:17:25;98193.22;;;17.54;100.00
65276;BME280;51875;49.994;14.052;2023-06-10T06:18:41;98192.81;;;17.46;100.00
65276;BME280;51875;49.994;14.052;2023-06-10T06:19:56;98200.31;;;17.54;100.00
65276;BME280;51875;49.994;14.052;2023-06-10T06:21:12;98191.44;;;17.84;100.00
65276;BME280;51875;49.994;14.052;2023-06-10T06:22:28;98195.97;;;18.11;100.00
65276;BME280;51875;49.994;14.052;2023-06-10T06:23:43;98190.69;;;17.82;100.00
65276;BME280;51875;49.994;14.052;2023-06-10T06:24:59;98189.34;;;17.89;100.00
65276;BME280;51875;49.994;14.052;2023-06-10T06:26:14;98202.59;;;18.03;100.00
65276;BME280;51875;49.994;14.052;2023-06-10T06:27:30;98203.25;;;18.21;100.00
65276;BME280;51875;49.994;14.052;2023-06-10T06:28:46;98207.16;;;18.43;100.00
65276;BME280;51875;49.994;14.052;2023-06-10T06:30:05;98208.06;;;18.57;100.00
65276;BME280;51875;49.994;14.052;2023-06-10T06:31:30;98210.81;;;18.83;100.00
65276;BME280;51875;49.994;14.052;2023-06-10T06:33:01;98206.31;;;18.70;100.00
65276;BME280;51875;49.994;14.052;2023-06-10T06:34:25;98211.91;;;18.80;100.00
65276;BME280;51875;49.994;14.052;2023-06-10T06:35:49;98211.06;;;19.07;100.00
65276;BME280;51875;49.994;14.052;2023-06-10T06:37:12;98206.78;;;19.04;100.00